Terminal Aerodrome Forecast
Issued by NWS

Home | Current Version | Previous Version | Text Only | Print | Product List | Glossary On
Versions: 1 2 3 4 5 6 7 8 9 10 11 12 13 14 15 16 17 18 19 20 21
000
FTUS42 KMLB 040541
TAFISM
TAF
KISM 040541Z 0406/0506 28004KT P6SM SCT060
     FM040700 21005KT P6SM SCT030
     FM041000 21006KT P6SM OVC019
     FM041200 22007KT P6SM VCSH SCT009 BKN020
     FM041400 23008G16KT P6SM VCTS OVC019CB
      TEMPO 0415/0419 3SM TSRA OVC019CB
     FM042000 27008KT P6SM VCSH BKN025 BKN040
      AMD NOT SKED TIL 041100=

USA.gov is the U.S. government's official web portal to all federal, state and local government web resources and services.